Tottori, Japan
Current Conditions -  °F | °C
As of 9:00 PM on Sunday 21 Dec 2014 (Local Time) from RJOR Reporting Station
Broken Clouds Broken Clouds  
Wind Chill: 34°   Ceiling: 10000
Heat Index: 41°   Visibility: 6mi
Dew Point: 23°   Wind: 13mph
Humidity: 49%   Direction: 220°SW
Pressure: 30.03"   Gusts: NA
Location:  35.5°N, 134.24°E
Report Text: RJOR 211200Z 22011KT 9999 FEW030 SCT040 BKN100 05/M05 Q1017
Loading
Personal Weather Stations






























Interactive Weather Map New forecast layout! Learn more

10-Day Weather Forecast

Advertisements
Track Severe Weather on mobile